Latest Weather Observations for Cerberus

IDV60801

Issued at 8:32 pm EST Monday 26 September 2016 (issued every 30 minutes, with the page automatically refreshed every 10 minutes)

About weather observations | Map of weather stations | Latest weather observations for VIC | Other Formats
Station Details ID: 086361 Name: CERBERUS Lat: -38.36 Lon: 145.18 Height: 12.69 m
Data from the previous 72 hours. | See also: Recent months at Cerberus
Date/Time
EST
Temp
°C
App
Temp
°C
Dew
Point
°C
Rel
Hum
%
Delta-T
°C
Wind Press
QNH
hPa
Press
MSL
hPa
Rain since
9am
mm
Dir  Spd
km/h
Gust
km/h
Spd
kts
Gust
kts
26/08:30pm 10.5 9.4 8.6 88 0.9 NW 4 6 2 3 1009.9 1009.9 0.4
26/08:00pm 10.7 9.6 8.3 85 1.2 N 4 6 2 3 1009.7 1009.7 0.2
26/07:30pm 11.5 9.4 8.2 80 1.6 NW 9 17 5 9 1009.5 1009.5 0.2
26/07:00pm 13.1 11.1 6.2 63 3.3 N 6 9 3 5 1008.9 1008.9 0.0
26/06:30pm 13.2 11.5 5.9 61 3.4 N 4 6 2 3 1008.7 1008.7 0.0
26/06:00pm 13.5 11.8 5.9 60 3.6 NNW 4 6 2 3 1008.6 1008.6 0.0
26/05:30pm 14.1 11.9 5.5 56 4.1 N 6 9 3 5 1008.5 1008.5 0.0
26/05:00pm 14.6 12.9 5.7 55 4.2 NNW 4 6 2 3 1008.5 1008.5 0.0
26/04:30pm 13.6 10.3 6.2 61 3.5 NNW 13 24 7 13 1008.9 1008.9 0.0
26/04:00pm 15.4 12.1 4.8 49 5.0 NW 11 17 6 9 1008.7 1008.7 0.0
26/03:30pm 16.4 12.6 4.1 44 5.7 WNW 13 20 7 11 1008.7 1008.7 0.0
26/03:00pm 16.6 12.9 4.3 44 5.8 NW 13 22 7 12 1009.0 1009.0 0.0
26/02:30pm 16.6 13.3 4.3 44 5.8 NW 11 20 6 11 1009.3 1009.3 0.0
26/02:00pm 16.0 12.2 4.1 45 5.5 NW 13 20 7 11 1009.7 1009.7 0.0
26/01:30pm 15.6 12.3 4.6 48 5.1 NW 11 22 6 12 1009.8 1009.8 0.0
26/01:00pm 15.8 12.3 5.4 50 5.0 WNW 13 22 7 12 1010.4 1010.4 0.0
26/12:30pm 14.9 11.2 4.3 49 4.9 WNW 13 26 7 14 1010.9 1010.9 0.0
26/12:00pm 15.2 11.2 5.1 51 4.8 NW 15 24 8 13 1011.2 1011.3 0.0
26/11:30am 14.7 10.5 5.5 54 4.4 NW 17 24 9 13 1011.5 1011.6 0.0
26/11:00am 14.0 9.9 4.3 52 4.5 NW 15 24 8 13 1011.8 1011.9 0.0
26/10:30am 13.3 9.4 5.2 58 3.8 WNW 15 22 8 12 1012.2 1012.3 0.0
26/10:00am 14.1 11.0 7.2 63 3.4 NNW 13 24 7 13 1012.3 1012.4 0.0
26/09:30am 13.2 9.5 6.5 64 3.2 NNW 15 22 8 12 1012.5 1012.6 0.0
26/09:00am 12.4 9.2 6.7 68 2.7 NNW 13 22 7 12 1012.4 1012.5 0.2
26/08:30am 12.1 9.8 7.4 73 2.3 NNW 9 15 5 8 1012.5 1012.6 0.2
26/08:00am 10.0 8.0 6.3 78 1.7 N 6 7 3 4 1012.7 1012.8 0.2
26/07:30am 9.4 7.4 6.1 80 1.5 N 6 9 3 5 1012.8 1012.9 0.2
26/07:00am 9.0 6.9 5.9 81 1.4 N 6 9 3 5 1012.9 1013.0 0.2
26/06:30am 9.0 6.9 5.7 80 1.5 N 6 11 3 6 1012.8 1012.9 0.2
26/06:00am 8.6 6.4 6.1 84 1.1 N 7 11 4 6 1012.6 1012.7 0.2
26/05:30am 7.7 6.0 6.0 89 0.8 NNW 4 6 2 3 1012.6 1012.7 0.2
26/05:00am 7.1 5.0 5.9 92 0.5 NNW 6 7 3 4 1012.6 1012.7 0.2
26/04:30am 6.5 5.1 5.3 92 0.5 N 2 6 1 3 1012.5 1012.6 0.2
26/04:00am 5.8 3.8 4.6 92 0.5 N 4 6 2 3 1012.5 1012.6 0.2
26/03:30am 4.9 2.8 3.7 92 0.5 NW 4 6 2 3 1012.6 1012.7 0.2
26/03:00am 4.8 2.6 3.5 91 0.5 NW 4 4 2 2 1012.5 1012.6 0.2
26/02:30am 4.7 2.5 3.4 91 0.5 NW 4 6 2 3 1013.0 1013.1 0.2
26/02:00am 4.3 2.8 2.8 90 0.6 CALM 0 0 0 0 1013.2 1013.3 0.2
26/01:30am 4.7 2.9 3.4 91 0.5 NW 2 2 1 1 1013.4 1013.5 0.2
26/01:00am 4.9 3.5 3.4 90 0.6 CALM 0 0 0 0 1013.3 1013.4 0.2
26/12:30am 5.0 3.2 3.3 89 0.7 NW 2 6 1 3 1013.8 1013.8 0.2
26/12:00am 5.4 4.0 3.7 89 0.7 CALM 0 2 0 1 1013.7 1013.7 0.2
 
Date/Time
EST
Temp
°C
App
Temp
°C
Dew
Point
°C
Rel
Hum
%
Delta-T
°C
Wind Press
QNH
hPa
Press
MSL
hPa
Rain since
9am
mm
Dir  Spd
km/h
Gust
km/h
Spd
kts
Gust
kts
25/11:30pm 5.7 3.6 3.9 88 0.8 NW 4 4 2 2 1013.8 1013.8 0.2
25/11:00pm 6.0 4.3 4.0 87 0.8 NW 2 4 1 2 1014.1 1014.1 0.2
25/10:30pm 7.1 4.7 5.1 87 0.9 NW 7 9 4 5 1014.4 1014.4 0.2
25/10:00pm 6.9 4.9 4.6 85 1.0 NW 4 6 2 3 1014.4 1014.4 0.2
25/09:30pm 7.5 5.3 5.1 85 1.1 NW 6 7 3 4 1014.4 1014.4 0.2
25/09:00pm 8.3 7.1 4.7 78 1.6 CALM 0 2 0 1 1014.3 1014.3 0.2
25/08:30pm 9.2 7.7 4.8 74 2.0 NW 2 4 1 2 1014.2 1014.2 0.2
25/08:00pm 10.2 8.3 5.0 70 2.3 WSW 4 6 2 3 1014.0 1014.0 0.2
25/07:30pm 10.2 7.6 4.4 67 2.6 SW 7 9 4 5 1013.4 1013.5 0.2
25/07:00pm 10.4 7.9 4.5 67 2.6 SSW 7 15 4 8 1012.8 1012.9 0.2
25/06:30pm 10.5 8.3 5.1 69 2.5 SW 6 9 3 5 1012.4 1012.5 0.2
25/06:00pm 11.2 8.4 5.1 66 2.8 SW 9 13 5 7 1012.2 1012.3 0.2
25/05:30pm 11.8 8.4 4.1 59 3.5 SW 11 19 6 10 1012.0 1012.1 0.2
25/05:00pm 12.3 8.4 3.5 55 3.9 SSW 13 20 7 11 1011.8 1011.9 0.2
25/04:30pm 12.2 8.0 3.9 57 3.7 SW 15 24 8 13 1011.7 1011.8 0.2
25/04:00pm 13.1 8.4 5.0 58 3.8 SW 19 28 10 15 1011.6 1011.7 0.2
25/03:30pm 12.9 8.7 5.6 61 3.4 SW 17 26 9 14 1011.4 1011.5 0.2
25/03:00pm 12.7 7.9 4.4 57 3.8 SW 19 26 10 14 1011.6 1011.7 0.2
25/02:30pm 13.3 8.5 4.7 56 4.0 SW 19 30 10 16 1011.3 1011.4 0.2
25/02:00pm 13.2 8.4 4.9 57 3.8 SW 19 33 10 18 1011.3 1011.4 0.2
25/01:30pm 12.4 8.9 7.3 71 2.5 WSW 15 28 8 15 1011.4 1011.5 0.2
25/01:00pm 11.2 6.8 6.7 74 2.1 W 19 32 10 17 1011.6 1011.7 0.0
25/12:30pm 12.6 7.8 5.8 63 3.2 WSW 20 30 11 16 1011.4 1011.5 0.0
25/12:00pm 14.1 8.7 4.4 52 4.5 WSW 22 39 12 21 1011.1 1011.2 0.0
25/11:30am 13.2 8.2 4.6 56 3.9 SW 20 33 11 18 1011.1 1011.2 0.0
25/11:00am 13.3 8.1 5.7 60 3.6 WSW 22 30 12 16 1011.0 1011.1 0.0
25/10:30am 14.6 10.3 7.2 61 3.6 WSW 19 33 10 18 1010.9 1010.9 0.0
25/10:00am 12.9 7.5 4.6 57 3.8 WSW 22 30 12 16 1010.8 1010.8 0.0
25/09:30am 12.6 8.1 6.0 64 3.1 W 19 30 10 16 1010.6 1010.6 0.0
25/09:00am 12.2 8.2 6.7 69 2.6 W 17 32 9 17 1010.2 1010.2 3.0
25/08:30am 12.3 8.9 7.6 73 2.3 WNW 15 24 8 13 1009.9 1009.9 3.0
25/08:00am 11.4 7.2 7.5 77 1.9 WNW 19 28 10 15 1009.6 1009.6 3.0
25/07:30am 11.3 8.2 7.2 76 2.0 WNW 13 24 7 13 1009.2 1009.2 3.0
25/07:00am 10.3 7.4 6.6 78 1.7 W 11 15 6 8 1009.0 1009.0 3.0
25/06:30am 9.8 6.8 6.2 78 1.7 W 11 17 6 9 1008.6 1008.6 3.0
25/06:00am 9.8 7.1 5.6 75 1.9 W 9 15 5 8 1008.1 1008.1 3.0
25/05:30am 10.1 7.3 6.8 80 1.6 W 11 22 6 12 1007.9 1007.9 3.0
25/05:00am 10.3 8.5 7.9 85 1.2 W 7 19 4 10 1007.6 1007.6 3.0
25/04:30am 10.9 8.9 8.5 85 1.2 W 9 15 5 8 1007.2 1007.2 3.0
25/04:00am 11.0 9.0 8.8 86 1.1 W 9 15 5 8 1006.9 1006.9 3.0
25/03:30am 10.9 9.0 9.0 88 0.9 WSW 9 13 5 7 1006.4 1006.4 3.0
25/03:00am 10.8 9.2 8.9 88 0.9 WSW 7 11 4 6 1006.4 1006.4 3.0
25/02:30am 11.3 9.1 9.4 88 1.0 WSW 11 19 6 10 1006.3 1006.3 2.8
25/02:00am 11.3 9.2 9.6 89 0.9 WSW 11 19 6 10 1006.4 1006.4 2.8
25/01:30am 12.2 10.8 10.8 91 0.7 NNW 9 20 5 11 1006.0 1006.0 1.0
25/01:00am 12.0 11.1 10.6 91 0.7 NNW 6 9 3 5 1006.0 1006.0 0.8
25/12:30am 11.9 10.7 10.3 90 0.8 N 7 13 4 7 1005.9 1005.9 0.8
25/12:00am 12.1 10.6 10.5 90 0.8 N 9 17 5 9 1006.0 1006.0 0.6
 
Date/Time
EST
Temp
°C
App
Temp
°C
Dew
Point
°C
Rel
Hum
%
Delta-T
°C
Wind Press
QNH
hPa
Press
MSL
hPa
Rain since
9am
mm
Dir  Spd
km/h
Gust
km/h
Spd
kts
Gust
kts
24/11:30pm 12.3 10.4 10.4 88 1.0 NW 11 20 6 11 1006.2 1006.2 0.2
24/11:00pm 12.7 9.2 10.1 84 1.3 NW 19 30 10 16 1006.3 1006.3 0.0
24/10:30pm 13.6 11.5 9.8 78 2.0 NW 11 20 6 11 1006.1 1006.1 0.0
24/10:00pm 13.8 12.0 9.6 76 2.2 NNW 9 17 5 9 1006.0 1006.0 0.0
24/09:30pm 14.1 11.2 9.5 74 2.4 NNW 15 28 8 15 1006.0 1006.0 0.0
24/09:00pm 14.6 11.6 9.2 70 2.8 NNW 15 28 8 15 1006.1 1006.1 0.0
24/08:30pm 15.0 11.1 8.7 66 3.2 NW 19 30 10 16 1006.2 1006.2 0.0
24/08:00pm 15.3 11.7 8.3 63 3.5 NW 17 32 9 17 1006.2 1006.2 0.0
24/07:30pm 15.7 12.9 8.4 62 3.7 NNW 13 24 7 13 1006.0 1006.0 0.0
24/07:00pm 16.8 14.0 6.9 52 4.9 NNW 11 20 6 11 1005.7 1005.7 0.0
24/06:30pm 16.9 14.0 6.4 50 5.2 N 11 19 6 10 1005.7 1005.7 0.0
24/06:00pm 17.2 14.7 6.4 49 5.3 N 9 19 5 10 1005.7 1005.7 0.0
24/05:30pm 17.4 15.0 6.9 50 5.2 N 9 19 5 10 1005.5 1005.5 0.0
24/05:00pm 17.7 14.8 6.6 48 5.5 NNW 11 28 6 15 1005.1 1005.1 0.0
24/04:30pm 18.1 14.4 6.3 46 5.8 NNW 15 24 8 13 1005.1 1005.1 0.0
24/04:00pm 18.4 14.2 5.9 44 6.2 NNW 17 32 9 17 1005.2 1005.2 0.0
24/03:30pm 19.0 14.2 5.8 42 6.5 NNW 20 33 11 18 1005.4 1005.4 0.0
24/03:00pm 19.5 14.9 6.6 43 6.5 NNW 20 37 11 20 1005.3 1005.3 0.0
24/02:30pm 19.2 15.1 6.0 42 6.5 N 17 30 9 16 1005.4 1005.4 0.0
24/02:00pm 19.0 13.9 5.8 42 6.5 NNW 22 39 12 21 1005.9 1005.9 0.0
24/01:30pm 19.6 15.4 7.4 45 6.2 NNW 19 30 10 16 1005.9 1005.9 0.0
24/01:00pm 18.6 13.5 6.1 44 6.2 NNW 22 37 12 20 1006.1 1006.1 0.0
24/12:30pm 18.9 14.3 5.4 41 6.6 NNW 19 37 10 20 1006.6 1006.6 0.0
24/12:00pm 18.7 13.6 5.9 43 6.3 NNW 22 39 12 21 1006.9 1006.9 0.0
24/11:30am 18.1 13.4 5.3 43 6.2 NNW 19 30 10 16 1007.2 1007.2 0.0
24/11:00am 17.8 13.7 6.3 47 5.7 N 17 30 9 16 1007.5 1007.5 0.0
24/10:30am 17.4 13.8 6.9 50 5.2 N 15 30 8 16 1007.9 1007.9 0.0
24/10:00am 16.5 12.9 6.9 53 4.8 N 15 28 8 15 1008.4 1008.4 0.0
24/09:30am 15.3 11.5 7.6 60 3.8 N 17 30 9 16 1009.1 1009.1 0.0
24/09:00am 15.7 12.8 8.0 60 3.9 N 13 22 7 12 1009.5 1009.5 0.0
24/08:30am 14.6 13.2 9.4 71 2.7 N 7 13 4 7 1009.6 1009.6 0.0
24/08:00am 12.6 11.2 9.4 81 1.6 N 7 13 4 7 1009.8 1009.8 0.0
24/07:30am 10.7 9.9 9.5 92 0.6 N 4 6 2 3 1009.9 1009.9 0.0
24/07:00am 9.5 8.4 8.3 92 0.6 N 4 7 2 4 1010.0 1010.0 0.0
24/06:30am 9.6 8.9 8.4 92 0.6 N 2 4 1 2 1009.9 1009.9 0.0
24/06:00am 9.4 8.2 8.2 92 0.6 NNE 4 6 2 3 1009.9 1009.9 0.0
24/05:30am 9.3 8.4 7.9 91 0.7 NE 2 2 1 1 1009.6 1009.6 0.0
24/05:00am 10.4 9.8 8.8 90 0.8 N 2 4 1 2 1009.7 1009.7 0.0
24/04:30am 10.3 10.0 8.7 90 0.8 CALM 0 2 0 1 1009.7 1009.7 0.0
24/04:00am 10.3 9.2 8.6 89 0.8 N 4 6 2 3 1009.9 1009.9 0.0
24/03:30am 11.3 10.1 9.6 89 0.9 NE 6 11 3 6 1009.8 1009.8 0.0
24/03:00am 11.2 10.0 9.5 89 0.9 NNE 6 9 3 5 1010.1 1010.1 0.0
24/02:30am 11.1 9.9 9.4 89 0.9 NE 6 13 3 7 1010.4 1010.4 0.0
24/02:00am 11.2 9.7 9.3 88 1.0 NNE 7 13 4 7 1010.7 1010.7 0.0
24/01:30am 11.3 9.9 9.4 88 1.0 NNE 7 11 4 6 1011.0 1011.1 0.0
24/01:00am 11.1 9.8 9.2 88 0.9 NNE 6 9 3 5 1011.0 1011.1 0.0
24/12:30am 11.3 9.8 9.2 87 1.0 NE 7 15 4 8 1010.9 1010.9 0.0
24/12:00am 11.6 10.1 9.3 86 1.2 NNE 7 15 4 8 1010.9 1010.9 0.0
 
Date/Time
EST
Temp
°C
App
Temp
°C
Dew
Point
°C
Rel
Hum
%
Delta-T
°C
Wind Press
QNH
hPa
Press
MSL
hPa
Rain since
9am
mm
Dir  Spd
km/h
Gust
km/h
Spd
kts
Gust
kts
23/11:30pm 11.9 10.5 9.6 86 1.2 NNE 7 19 4 10 1011.0 1011.1 0.0
23/11:00pm 11.7 9.9 9.4 86 1.2 NE 9 13 5 7 1011.1 1011.2 0.0
23/10:30pm 11.7 10.3 9.4 86 1.2 NE 7 15 4 8 1011.4 1011.5 0.0
23/10:00pm 11.1 9.9 9.4 89 0.9 ENE 6 9 3 5 1011.5 1011.6 0.0
23/09:30pm 10.2 9.1 8.6 90 0.8 NE 4 6 2 3 1011.9 1012.0 0.0
23/09:00pm 9.5 9.0 7.9 90 0.8 CALM 0 0 0 0 1011.9 1012.0 0.0

Other Formats:

Comma delimited format used in spreadsheet applications
http://www.bom.gov.au/fwo/IDV60801/IDV60801.94898.axf

JavaScript Object Notation format (JSON) in row-major order
http://www.bom.gov.au/fwo/IDV60801/IDV60801.94898.json